Time;durP1;ratioP1;P1;durP2;ratioP2;P2;SDS_P1;SDS_P2;PMS_P1;PMS_P2;Temp;Humidity;BMP_temperature;BMP_pressure;BME280_temperature;BME280_humidity;BME280_pressure;Samples;Min_cycle;Max_cycle;Signal;HPM_P1;HPM_P2
2022/03/09 00:02:49;;;;;;;13.88;8.65;;;;;;;-1.35;51.47;100614.56;10263868;28;20143;-74
2022/03/09 00:07:51;;;;;;;14.65;9.15;;;;;;;-1.26;51.34;100630.78;10265212;28;20146;-73
2022/03/09 00:12:57;;;;;;;15.60;10.10;;;;;;;-1.40;51.85;100621.38;10264159;28;20206;-73
2022/03/09 00:18:00;;;;;;;13.45;8.95;;;;;;;-1.43;52.01;100629.09;10265098;28;20050;-73
2022/03/09 00:23:02;;;;;;;13.27;8.68;;;;;;;-1.45;52.02;100635.94;10264284;28;20061;-73
2022/03/09 00:28:04;;;;;;;13.73;9.00;;;;;;;-1.54;52.13;100629.09;10265947;28;20137;-73
2022/03/09 00:33:05;;;;;;;14.82;9.02;;;;;;;-1.52;52.35;100627.38;10263481;28;20157;-73
2022/03/09 00:38:07;;;;;;;12.57;8.40;;;;;;;-1.55;52.14;100631.66;10264836;28;20189;-73
2022/03/09 00:43:09;;;;;;;15.07;8.90;;;;;;;-1.56;52.27;100637.63;10263454;28;20113;-73
2022/03/09 00:48:16;;;;;;;13.85;8.80;;;;;;;-1.58;52.33;100637.66;10263486;28;20050;-73
2022/03/09 00:53:17;;;;;;;14.90;8.90;;;;;;;-1.61;52.50;100639.31;10264520;28;20051;-73
2022/03/09 00:58:19;;;;;;;15.57;9.02;;;;;;;-1.92;52.50;100651.28;10259413;28;20529;-73
2022/03/09 01:03:21;;;;;;;14.15;8.73;;;;;;;-1.93;52.72;100651.25;10263450;28;20050;-73
2022/03/09 01:08:23;;;;;;;15.30;9.32;;;;;;;-1.86;52.79;100646.16;10263321;28;20412;-73
2022/03/09 01:13:25;;;;;;;15.73;8.68;;;;;;;-1.75;52.84;100641.03;10261608;28;20132;-73
2022/03/09 01:18:26;;;;;;;14.02;9.40;;;;;;;-1.75;52.65;100647.03;10263029;28;20129;-73
2022/03/09 01:23:28;;;;;;;18.33;10.20;;;;;;;-1.91;52.74;100655.53;10263278;28;20531;-74
2022/03/09 01:28:30;;;;;;;15.15;9.05;;;;;;;-2.05;53.39;100652.97;10262723;28;20173;-74
2022/03/09 01:33:32;;;;;;;13.18;8.75;;;;;;;-2.06;53.51;100643.53;10262430;28;20117;-74
2022/03/09 01:38:34;;;;;;;14.23;8.18;;;;;;;-2.13;53.55;100646.97;10262151;28;20197;-73
2022/03/09 01:43:35;;;;;;;14.80;8.65;;;;;;;-2.16;53.76;100638.38;10262199;28;20057;-73
2022/03/09 01:48:37;;;;;;;14.43;9.20;;;;;;;-2.11;53.79;100629.00;10258964;28;20055;-73
2022/03/09 01:53:39;;;;;;;15.98;10.00;;;;;;;-2.21;53.80;100637.53;10258999;28;20853;-73
2022/03/09 01:58:41;;;;;;;17.35;10.00;;;;;;;-2.33;54.08;100635.78;10262568;28;20141;-73
2022/03/09 02:03:43;;;;;;;17.95;10.52;;;;;;;-2.29;53.96;100628.97;10262535;28;20174;-73
2022/03/09 02:14:36;;;;;;;14.15;8.95;;;;;;;-2.54;55.22;100630.59;10263602;28;20157;-73
2022/03/09 02:19:39;;;;;;;16.73;9.70;;;;;;;-2.54;54.45;100612.66;10269285;28;20073;-73
2022/03/09 02:24:41;;;;;;;19.63;9.50;;;;;;;-2.60;54.60;100633.13;10270120;28;20059;-73
2022/03/09 02:29:43;;;;;;;20.80;9.98;;;;;;;-2.71;54.37;100623.69;10269422;28;20061;-73
2022/03/09 02:34:45;;;;;;;15.10;9.35;;;;;;;-2.87;55.07;100636.41;10270153;28;20081;-73
2022/03/09 02:39:47;;;;;;;18.05;10.65;;;;;;;-2.79;55.31;100631.31;10269102;28;20683;-72
2022/03/09 02:44:49;;;;;;;15.48;8.85;;;;;;;-2.76;55.07;100625.34;10285245;28;20141;-73
2022/03/09 02:49:50;;;;;;;13.23;9.23;;;;;;;-2.74;55.15;100628.78;10269216;28;20447;-73
2022/03/09 02:54:52;;;;;;;13.20;8.73;;;;;;;-2.75;55.17;100630.47;10269842;28;20145;-73
2022/03/09 02:59:54;;;;;;;14.50;8.77;;;;;;;-2.83;55.18;100631.31;10269385;28;20137;-73
2022/03/09 03:04:56;;;;;;;15.13;8.68;;;;;;;-2.89;55.46;100622.72;10275108;28;20146;-73
2022/03/09 03:09:57;;;;;;;16.13;8.73;;;;;;;-2.91;55.59;100623.56;10276301;28;20161;-73
2022/03/09 03:14:59;;;;;;;12.60;8.43;;;;;;;-3.04;55.43;100629.47;10275051;28;20787;-73
2022/03/09 03:20:01;;;;;;;13.60;9.02;;;;;;;-3.21;55.85;100639.59;10275623;28;20051;-73
2022/03/09 03:25:04;;;;;;;19.40;8.90;;;;;;;-3.27;56.17;100636.13;10274452;28;20062;-72
2022/03/09 03:30:06;;;;;;;15.77;9.00;;;;;;;-3.17;56.03;100636.22;10275705;28;20066;-73
2022/03/09 03:35:08;;;;;;;14.77;9.10;;;;;;;-3.20;56.05;100632.78;10275093;28;20453;-73
2022/03/09 03:40:10;;;;;;;14.52;8.60;;;;;;;-3.21;55.98;100637.03;10274283;28;20129;-73
2022/03/09 03:45:12;;;;;;;12.93;9.30;;;;;;;-3.24;56.14;100634.44;10275183;28;20161;-73
2022/03/09 03:50:14;;;;;;;12.90;8.85;;;;;;;-3.32;56.32;100633.53;10274862;28;20110;-73
2022/03/09 03:55:16;;;;;;;15.82;8.60;;;;;;;-3.30;56.15;100647.19;10274695;28;20469;-73
2022/03/09 04:00:18;;;;;;;20.20;10.18;;;;;;;-3.30;56.11;100646.31;10274820;28;20563;-73
2022/03/09 04:05:19;;;;;;;17.60;9.48;;;;;;;-3.36;56.25;100657.38;10270404;28;20145;-73
2022/03/09 04:10:21;;;;;;;13.38;8.75;;;;;;;-3.37;56.35;100665.03;10268288;28;20515;-73
2022/03/09 04:15:23;;;;;;;14.63;9.00;;;;;;;-3.41;56.43;100648.81;10267466;28;20143;-73
2022/03/09 04:20:25;;;;;;;13.13;8.75;;;;;;;-3.45;56.59;100654.75;10264939;28;20469;-73
2022/03/09 04:25:29;;;;;;;18.67;10.75;;;;;;;-3.50;56.73;100653.84;10267405;28;20137;-73
2022/03/09 04:30:32;;;;;;;16.40;10.00;;;;;;;-3.53;56.78;100647.88;10267303;28;20476;-73
2022/03/09 04:35:34;;;;;;;15.85;9.93;;;;;;;-3.60;56.98;100651.19;10266209;28;20142;-73
2022/03/09 04:40:35;;;;;;;14.45;8.60;;;;;;;-3.59;56.89;100642.69;10266087;28;20572;-73
2022/03/09 04:45:37;;;;;;;13.98;9.20;;;;;;;-3.62;56.80;100650.34;10266494;28;20924;-73
2022/03/09 04:50:39;;;;;;;14.07;8.95;;;;;;;-3.63;56.96;100646.94;10266352;28;20086;-73
2022/03/09 04:55:41;;;;;;;14.48;8.73;;;;;;;-3.68;57.00;100643.47;10266423;28;20069;-73
2022/03/09 05:00:43;;;;;;;17.38;9.55;;;;;;;-3.75;57.12;100642.56;10266431;28;20129;-73
2022/03/09 05:05:45;;;;;;;14.02;8.82;;;;;;;-3.84;57.11;100642.50;10265985;28;20137;-73
2022/03/09 05:10:47;;;;;;;14.82;9.15;;;;;;;-4.13;57.32;100656.66;10265880;28;20146;-73
2022/03/09 05:15:48;;;;;;;14.25;9.20;;;;;;;-4.12;57.61;100654.97;10266105;28;20152;-73
2022/03/09 05:20:50;;;;;;;15.35;9.73;;;;;;;-4.15;57.47;100652.38;10265286;28;20051;-73
2022/03/09 05:25:52;;;;;;;15.90;10.02;;;;;;;-4.44;57.95;100666.50;10265870;28;20477;-73
2022/03/09 05:30:54;;;;;;;15.43;9.00;;;;;;;-4.37;57.79;100666.59;10264269;28;20080;-73
2022/03/09 05:35:56;;;;;;;16.98;9.82;;;;;;;-4.32;57.73;100671.75;10264911;28;20118;-73
2022/03/09 05:40:57;;;;;;;14.13;9.38;;;;;;;-4.52;57.98;100677.47;10265333;28;20137;-72
2022/03/09 05:45:59;;;;;;;17.40;10.38;;;;;;;-4.58;58.20;100684.19;10264534;28;20479;-73
2022/03/09 05:51:02;;;;;;;15.20;8.65;;;;;;;-4.51;58.36;100696.22;10265466;28;20051;-73
2022/03/09 05:56:04;;;;;;;15.73;9.55;;;;;;;-4.35;58.25;100693.00;10271617;28;20082;-72
2022/03/09 06:01:06;;;;;;;17.08;10.18;;;;;;;-4.27;58.33;100695.63;10271857;28;20746;-73
2022/03/09 06:06:08;;;;;;;16.23;9.43;;;;;;;-4.12;58.16;100696.69;10272484;28;20073;-73
2022/03/09 06:11:10;;;;;;;18.83;11.15;;;;;;;-4.18;57.82;100700.88;10271776;28;20078;-73
2022/03/09 06:16:12;;;;;;;19.63;10.85;;;;;;;-4.44;58.26;100718.41;10271594;28;20580;-73
2022/03/09 06:21:14;;;;;;;16.08;10.32;;;;;;;-4.42;58.63;100726.09;10270067;28;20491;-73
2022/03/09 06:26:15;;;;;;;17.67;10.88;;;;;;;-4.31;58.63;100716.88;10271180;28;20177;-73
2022/03/09 06:31:17;;;;;;;22.15;11.15;;;;;;;-4.08;58.36;100723.13;10272102;28;20153;-73
2022/03/09 06:36:19;;;;;;;19.58;10.38;;;;;;;-3.84;58.10;100715.72;10271227;28;20046;-73
2022/03/09 06:41:20;;;;;;;20.33;11.15;;;;;;;-3.67;57.81;100727.81;10269839;28;20047;-73
2022/03/09 06:46:22;;;;;;;24.67;10.57;;;;;;;-3.53;57.67;100720.31;10271015;28;20454;-73
2022/03/09 06:51:24;;;;;;;20.60;11.35;;;;;;;-3.40;57.65;100723.81;10269865;28;20050;-73
2022/03/09 06:56:26;;;;;;;19.58;11.15;;;;;;;-3.23;57.44;100733.38;10270484;28;20557;-73
2022/03/09 07:01:27;;;;;;;17.85;11.00;;;;;;;-3.12;57.38;100743.69;10269770;28;20688;-72
2022/03/09 07:06:30;;;;;;;19.75;11.63;;;;;;;-2.96;57.11;100748.91;10270420;28;20084;-73
2022/03/09 07:11:31;;;;;;;18.58;11.52;;;;;;;-2.86;57.15;100752.44;10269368;28;20125;-73
2022/03/09 07:16:34;;;;;;;23.20;13.38;;;;;;;-2.67;56.71;100755.97;10268124;28;20059;-73
2022/03/09 07:21:35;;;;;;;23.67;12.05;;;;;;;-2.48;56.31;100758.66;10268173;28;20054;-73
2022/03/09 07:26:40;;;;;;;19.85;11.48;;;;;;;-2.24;55.99;100757.91;10268793;28;20166;-73
2022/03/09 07:31:42;;;;;;;22.42;12.18;;;;;;;-2.00;55.76;100758.06;10269734;28;20460;-73
2022/03/09 07:36:44;;;;;;;20.90;11.68;;;;;;;-1.82;55.50;100755.56;10267155;28;20061;-73
2022/03/09 07:41:46;;;;;;;21.85;11.77;;;;;;;-1.86;55.38;100755.53;10268606;28;20572;-73
2022/03/09 07:46:48;;;;;;;19.15;12.20;;;;;;;-1.69;55.07;100747.03;10268089;28;20058;-73
2022/03/09 07:51:50;;;;;;;19.95;10.85;;;;;;;-1.59;55.14;100753.91;10267900;28;20130;-73
2022/03/09 07:56:52;;;;;;;20.52;11.50;;;;;;;-1.07;55.12;100753.97;10268931;28;20055;-73
2022/03/09 08:01:54;;;;;;;18.80;10.70;;;;;;;-0.36;53.92;100758.19;10267560;28;20144;-73
2022/03/09 08:06:56;;;;;;;24.40;11.32;;;;;;;-0.04;52.96;100755.50;10267224;28;20060;-73
2022/03/09 08:11:58;;;;;;;19.77;10.27;;;;;;;0.41;51.48;100765.59;10282773;28;20161;-73
2022/03/09 08:16:59;;;;;;;23.15;11.02;;;;;;;0.85;50.26;100762.72;10267359;28;20542;-73
2022/03/09 08:22:01;;;;;;;18.48;11.68;;;;;;;1.13;49.46;100768.53;10266841;28;20146;-73
2022/03/09 08:27:04;;;;;;;18.88;11.48;;;;;;;1.67;48.85;100769.72;10266477;28;20094;-73
2022/03/09 08:32:06;;;;;;;22.65;11.68;;;;;;;2.04;47.94;100763.28;10263868;28;20126;-73
2022/03/09 08:37:08;;;;;;;19.27;10.77;;;;;;;2.02;47.72;100765.03;10280191;28;20141;-73
2022/03/09 08:42:10;;;;;;;21.85;10.80;;;;;;;2.35;46.92;100761.19;10262075;28;20082;-73
2022/03/09 08:47:15;;;;;;;25.05;10.95;;;;;;;2.50;46.17;100759.22;10264325;28;20534;-72
2022/03/09 08:52:16;;;;;;;20.30;10.98;;;;;;;2.47;45.87;100755.84;10265658;28;20050;-72
2022/03/09 08:57:18;;;;;;;16.45;9.95;;;;;;;2.53;45.47;100758.34;10263654;28;20054;-72
2022/03/09 09:02:21;;;;;;;19.95;10.35;;;;;;;2.84;45.11;100755.31;10266059;28;20050;-73
2022/03/09 09:07:24;;;;;;;20.35;10.15;;;;;;;3.21;44.43;100749.53;10264017;28;20082;-72
2022/03/09 09:12:25;;;;;;;22.27;9.77;;;;;;;3.56;44.03;100747.16;10265023;28;20054;-72
2022/03/09 09:17:27;;;;;;;18.45;10.68;;;;;;;3.81;43.57;100745.84;10265203;28;20078;-72
2022/03/09 09:22:42;;;;;;;16.95;9.65;;;;;;;4.02;42.57;100744.59;10263815;28;20142;-72
2022/03/09 09:28:04;;;;;;;17.92;9.35;;;;;;;4.35;42.05;100734.38;10264648;28;20081;-72
2022/03/09 09:33:06;;;;;;;18.10;8.82;;;;;;;4.67;40.67;100736.28;10264761;28;20054;-72
2022/03/09 09:38:08;;;;;;;15.02;7.90;;;;;;;4.86;39.63;100726.34;10264435;28;20623;-72
2022/03/09 09:43:15;;;;;;;18.92;8.75;;;;;;;4.86;39.37;100734.94;10263737;28;20051;-73
2022/03/09 09:48:19;;;;;;;21.38;9.30;;;;;;;4.72;40.13;100725.81;10263716;28;20141;-73
2022/03/09 09:53:23;;;;;;;23.60;9.90;;;;;;;5.15;39.69;100726.44;10262400;28;20046;-72
2022/03/09 09:58:28;;;;;;;15.23;9.13;;;;;;;5.30;39.37;100715.69;10263594;28;20133;-72
2022/03/09 10:03:30;;;;;;;17.67;8.80;;;;;;;5.39;39.09;100710.28;10260263;28;20566;-73
2022/03/09 10:08:31;;;;;;;17.60;9.30;;;;;;;5.56;38.72;100718.47;10257712;28;20054;-73
2022/03/09 10:13:35;;;;;;;18.42;8.98;;;;;;;5.62;38.50;100712.25;10257533;28;20166;-72
2022/03/09 10:18:37;;;;;;;14.85;8.75;;;;;;;6.00;37.72;100706.84;10255836;28;20658;-73
2022/03/09 10:24:05;;;;;;;15.13;8.20;;;;;;;6.43;35.46;100696.06;10262588;28;20051;-73
2022/03/09 10:29:12;;;;;;;13.75;8.23;;;;;;;6.77;36.08;100688.91;10260110;28;20050;-73
2022/03/09 10:34:25;;;;;;;13.88;8.32;;;;;;;6.68;35.19;100682.25;10261406;28;20050;-72
2022/03/09 10:39:37;;;;;;;13.50;8.35;;;;;;;6.93;34.83;100684.91;10268945;28;20051;-73
2022/03/09 10:44:48;;;;;;;15.38;8.80;;;;;;;7.04;35.79;100675.84;10268986;28;20066;-73
2022/03/09 10:49:50;;;;;;;15.15;8.52;;;;;;;7.29;35.62;100678.47;10268840;28;20277;-73
2022/03/09 10:54:52;;;;;;;17.58;8.88;;;;;;;7.20;35.88;100669.22;10269338;28;20063;-73
2022/03/09 10:59:55;;;;;;;17.10;9.10;;;;;;;7.30;35.67;100669.78;10269796;28;20157;-73
2022/03/09 11:05:12;;;;;;;13.60;8.80;;;;;;;7.51;34.70;100665.56;10268746;28;20133;-73
2022/03/09 11:10:15;;;;;;;14.32;7.65;;;;;;;7.64;35.66;100651.19;10270309;28;20496;-73
2022/03/09 11:15:21;;;;;;;14.15;7.90;;;;;;;7.80;34.61;100644.53;10269161;28;20061;-75
2022/03/09 11:20:23;;;;;;;12.15;8.15;;;;;;;7.80;34.11;100644.53;10268160;28;20086;-76
2022/03/09 11:25:49;;;;;;;13.98;8.13;;;;;;;7.91;33.13;100643.22;10268191;28;20055;-76
2022/03/09 11:30:54;;;;;;;14.90;7.85;;;;;;;8.07;33.17;100645.25;10269130;28;20098;-76
2022/03/09 11:35:56;;;;;;;12.50;7.43;;;;;;;8.27;32.57;100640.13;10268103;28;20097;-76
2022/03/09 11:41:36;;;;;;;14.52;8.57;;;;;;;8.46;32.27;100643.72;10268374;28;20138;-76
2022/03/09 11:46:59;;;;;;;11.52;7.57;;;;;;;8.70;31.80;100640.13;10251324;28;20102;-76
2022/03/09 11:52:15;;;;;;;12.30;7.85;;;;;;;8.88;31.80;100634.16;10267170;28;20386;-76
2022/03/09 11:57:17;;;;;;;12.23;8.00;;;;;;;9.08;32.83;100634.16;10263547;28;20050;-75
2022/03/09 12:02:20;;;;;;;12.07;7.65;;;;;;;9.18;31.73;100627.63;10267737;28;20057;-75
2022/03/09 12:07:28;;;;;;;10.57;7.45;;;;;;;9.32;31.14;100621.84;10267721;28;20061;-75
2022/03/09 12:12:32;;;;;;;10.02;6.85;;;;;;;9.51;31.28;100607.91;10260344;28;20671;-77
2022/03/09 12:17:39;;;;;;;9.70;7.35;;;;;;;9.52;30.99;100600.91;10260922;28;20076;-75
2022/03/09 12:22:59;;;;;;;10.25;7.47;;;;;;;9.47;29.63;100592.44;10262502;28;20065;-75
2022/03/09 12:28:23;;;;;;;10.77;7.43;;;;;;;9.58;29.04;100588.41;10264212;28;20059;-75
2022/03/09 12:33:28;;;;;;;11.73;7.43;;;;;;;9.79;29.89;100573.56;10260294;28;20054;-75
2022/03/09 12:38:44;;;;;;;10.73;7.20;;;;;;;9.84;27.27;100571.59;10262376;28;20059;-75
2022/03/09 12:43:51;;;;;;;10.00;7.20;;;;;;;10.11;28.46;100570.31;10263479;28;20790;-75
2022/03/09 12:49:07;;;;;;;11.05;7.57;;;;;;;10.28;28.33;100572.94;10262884;28;20149;-75
2022/03/09 12:54:10;;;;;;;11.13;7.10;;;;;;;10.56;29.36;100567.22;10260700;28;20047;-75
2022/03/09 12:59:14;;;;;;;12.40;7.45;;;;;;;10.67;27.57;100564.91;10258350;28;20061;-75
2022/03/09 13:04:21;;;;;;;10.77;7.30;;;;;;;10.76;26.65;100554.00;10259203;28;20071;-75
2022/03/09 13:09:24;;;;;;;12.38;7.18;;;;;;;10.98;27.77;100545.88;10259707;28;20366;-75
2022/03/09 13:14:26;;;;;;;11.98;7.95;;;;;;;11.13;26.63;100548.56;10262441;28;20070;-75
2022/03/09 13:19:37;;;;;;;9.88;7.15;;;;;;;11.22;26.10;100540.25;10261383;28;20599;-75
2022/03/09 13:24:39;;;;;;;10.15;7.55;;;;;;;11.24;25.91;100540.16;10261437;28;20090;-75
2022/03/09 13:29:43;;;;;;;13.63;7.90;;;;;;;11.43;25.32;100532.19;10260123;28;20484;-75
2022/03/09 13:34:45;;;;;;;11.50;7.80;;;;;;;11.71;24.88;100527.13;10261111;28;20130;-75
2022/03/09 13:39:49;;;;;;;12.65;7.95;;;;;;;11.73;23.95;100530.50;10259282;28;20050;-75
2022/03/09 13:45:08;;;;;;;12.45;8.65;;;;;;;11.71;21.58;100530.59;10260504;28;20468;-75
2022/03/09 13:50:19;;;;;;;13.48;7.68;;;;;;;11.67;21.43;100526.44;10260266;28;20050;-75
2022/03/09 13:55:27;;;;;;;9.98;7.72;;;;;;;11.74;23.50;100521.72;10257435;28;20544;-75
2022/03/09 14:00:33;;;;;;;13.02;7.93;;;;;;;11.88;23.51;100513.94;10260935;28;20057;-76
2022/03/09 14:05:37;;;;;;;11.75;8.15;;;;;;;11.95;22.80;100515.28;10260630;28;20055;-75
2022/03/09 14:10:40;;;;;;;15.90;8.35;;;;;;;12.12;23.09;100509.94;10261336;28;20913;-75
2022/03/09 14:15:43;;;;;;;12.90;8.68;;;;;;;12.01;22.59;100513.16;10264503;28;20069;-75
2022/03/09 14:20:47;;;;;;;10.05;7.45;;;;;;;12.15;23.02;100509.75;10266245;28;20050;-76
2022/03/09 14:25:48;;;;;;;11.00;7.50;;;;;;;12.15;22.34;100510.59;10265959;28;21178;-75
2022/03/09 14:30:50;;;;;;;15.27;7.85;;;;;;;12.22;22.49;100510.25;10268190;28;20090;-75
2022/03/09 14:35:52;;;;;;;11.35;7.95;;;;;;;12.21;22.65;100509.44;10266934;28;20987;-76
2022/03/09 14:40:54;;;;;;;11.20;7.68;;;;;;;12.11;22.81;100501.22;10266846;28;20065;-77
2022/03/09 14:45:57;;;;;;;10.25;7.63;;;;;;;12.29;22.35;100495.91;10267777;28;20161;-76
2022/03/09 14:50:59;;;;;;;10.82;7.22;;;;;;;12.23;22.48;100489.22;10268373;28;20133;-77
2022/03/09 14:56:09;;;;;;;9.35;6.78;;;;;;;12.20;21.09;100493.75;10266587;28;20490;-77
2022/03/09 15:01:11;;;;;;;9.13;7.20;;;;;;;12.24;21.74;100488.25;10258574;28;20105;-76
2022/03/09 15:06:13;;;;;;;9.63;6.72;;;;;;;12.19;21.54;100484.22;10259547;28;20116;-76
2022/03/09 15:11:17;;;;;;;10.68;6.78;;;;;;;12.14;20.65;100481.84;10268514;28;20134;-76
2022/03/09 15:16:20;;;;;;;10.15;6.90;;;;;;;12.05;20.72;100482.38;10264305;28;20570;-76
2022/03/09 15:21:28;;;;;;;9.85;7.30;;;;;;;11.94;21.50;100484.78;10260387;28;20062;-76
2022/03/09 15:26:30;;;;;;;10.77;6.93;;;;;;;11.96;21.48;100488.16;10265117;28;20141;-76
2022/03/09 15:31:32;;;;;;;11.20;7.20;;;;;;;11.82;21.74;100485.47;10264536;28;20500;-76
2022/03/09 15:36:34;;;;;;;11.75;7.18;;;;;;;11.72;21.99;100490.34;10263088;28;20069;-76
2022/03/09 15:41:36;;;;;;;13.60;7.90;;;;;;;11.67;22.15;100496.78;10263096;28;20154;-76
2022/03/09 15:46:38;;;;;;;13.00;6.75;;;;;;;11.60;21.64;100495.44;10264763;28;20050;-76
2022/03/09 15:51:40;;;;;;;11.85;7.40;;;;;;;11.59;22.20;100498.97;10259831;28;20436;-76
2022/03/09 15:56:43;;;;;;;13.07;7.10;;;;;;;11.58;22.23;100507.78;10258065;28;20317;-76
2022/03/09 16:01:45;;;;;;;11.27;7.05;;;;;;;11.56;22.00;100496.53;10258856;28;20050;-77
2022/03/09 16:06:47;;;;;;;10.75;7.75;;;;;;;11.44;22.16;100503.28;10256617;28;20062;-76
2022/03/09 16:11:49;;;;;;;11.70;7.07;;;;;;;11.37;22.45;100501.94;10262220;28;20114;-76
2022/03/09 16:16:51;;;;;;;9.93;7.20;;;;;;;11.18;22.31;100511.69;10261912;28;20138;-76
2022/03/09 16:21:54;;;;;;;14.68;7.22;;;;;;;11.06;22.16;100515.81;10262139;28;20073;-77
2022/03/09 16:26:56;;;;;;;14.95;7.13;;;;;;;10.85;22.00;100519.50;10260106;28;20653;-76
2022/03/09 16:31:58;;;;;;;10.98;7.00;;;;;;;10.78;22.53;100523.38;10262643;28;20129;-76
2022/03/09 16:37:00;;;;;;;10.65;7.07;;;;;;;10.52;22.68;100523.84;10258972;28;20221;-76
2022/03/09 16:42:02;;;;;;;10.40;7.63;;;;;;;10.30;22.90;100531.88;10262652;28;20544;-76
2022/03/09 16:47:06;;;;;;;10.32;7.38;;;;;;;10.07;23.31;100531.31;10262945;28;20651;-76
2022/03/09 16:52:12;;;;;;;11.57;7.60;;;;;;;9.81;23.63;100531.72;10260328;28;20106;-76
2022/03/09 16:57:14;;;;;;;12.55;8.25;;;;;;;9.53;24.17;100532.09;10261464;28;20090;-76
2022/03/09 17:02:16;;;;;;;14.98;9.00;;;;;;;9.20;24.86;100538.88;10257414;28;20061;-76
2022/03/09 17:07:18;;;;;;;14.68;9.45;;;;;;;8.78;25.25;100541.56;10261518;28;20413;-76
2022/03/09 17:12:20;;;;;;;13.00;8.95;;;;;;;8.49;25.38;100552.34;10262961;28;20062;-76
2022/03/09 17:17:22;;;;;;;12.55;9.23;;;;;;;8.15;25.54;100546.81;10262890;28;20659;-76
2022/03/09 17:22:29;;;;;;;12.65;8.15;;;;;;;7.89;25.75;100559.09;10268518;28;20058;-75
2022/03/09 17:27:33;;;;;;;14.35;7.32;;;;;;;7.78;25.50;100569.06;10288064;28;20066;-77
2022/03/09 17:32:35;;;;;;;12.75;8.23;;;;;;;7.67;25.85;100570.41;10276591;28;20109;-77
2022/03/09 17:37:40;;;;;;;11.77;8.60;;;;;;;7.40;26.84;100582.69;10265983;28;20122;-77
2022/03/09 17:42:43;;;;;;;13.73;9.15;;;;;;;7.26;27.00;100595.34;10288365;28;20106;-76
2022/03/09 17:47:45;;;;;;;16.23;9.35;;;;;;;7.03;27.21;100601.34;10296175;28;20121;-77
2022/03/09 17:52:47;;;;;;;13.25;9.32;;;;;;;6.88;28.17;100606.19;10269705;28;21111;-77
2022/03/09 17:57:51;;;;;;;16.10;8.95;;;;;;;6.71;28.14;100616.34;10272714;28;20432;-74
2022/03/09 18:02:53;;;;;;;13.73;9.38;;;;;;;6.53;28.58;100619.53;10267911;28;20051;-74
2022/03/09 18:07:55;;;;;;;16.25;9.70;;;;;;;6.30;28.92;100621.13;10268359;28;20141;-74
2022/03/09 18:12:56;;;;;;;15.90;10.32;;;;;;;6.05;30.52;100620.13;10267188;28;20055;-74
2022/03/09 18:17:58;;;;;;;20.92;12.02;;;;;;;5.84;30.87;100633.75;10268313;28;20066;-74
2022/03/09 18:23:00;;;;;;;14.90;10.32;;;;;;;5.66;32.24;100634.28;10266567;28;20059;-74
2022/03/09 18:28:04;;;;;;;17.40;11.63;;;;;;;5.48;32.30;100643.44;10268524;28;20157;-74
2022/03/09 18:33:07;;;;;;;19.90;13.07;;;;;;;5.26;32.75;100644.06;10268608;28;20062;-74
2022/03/09 18:38:08;;;;;;;18.45;11.57;;;;;;;5.01;32.90;100645.59;10282957;28;20051;-74
2022/03/09 18:43:11;;;;;;;18.23;11.88;;;;;;;4.78;33.49;100643.56;10268416;28;20129;-74
2022/03/09 18:48:12;;;;;;;14.13;9.68;;;;;;;4.70;34.07;100643.78;10268785;28;20065;-74
2022/03/09 18:53:14;;;;;;;23.63;12.98;;;;;;;4.62;34.19;100648.28;10267465;28;20050;-75
2022/03/09 18:58:24;;;;;;;20.58;11.80;;;;;;;4.51;35.34;100654.63;10266267;28;20523;-74
2022/03/09 19:03:26;;;;;;;15.07;9.88;;;;;;;4.35;36.10;100659.28;10259237;28;20147;-75
2022/03/09 19:08:27;;;;;;;17.23;11.32;;;;;;;4.18;36.23;100665.72;10261088;28;20047;-74
2022/03/09 19:13:29;;;;;;;18.55;11.07;;;;;;;3.93;36.40;100669.72;10265225;28;20130;-74
2022/03/09 19:18:31;;;;;;;15.60;10.65;;;;;;;3.82;36.48;100655.25;10265180;28;20463;-74
2022/03/09 19:23:33;;;;;;;18.83;9.80;;;;;;;3.74;36.87;100671.84;10266164;28;20054;-74
2022/03/09 19:28:35;;;;;;;16.45;9.13;;;;;;;3.64;37.21;100678.06;10264898;28;20054;-74
2022/03/09 19:33:37;;;;;;;17.10;10.95;;;;;;;3.48;37.90;100677.50;10265840;28;20137;-74
2022/03/09 19:38:39;;;;;;;17.15;10.90;;;;;;;3.45;38.78;100671.53;10264995;28;20130;-74
2022/03/09 19:43:41;;;;;;;16.02;10.32;;;;;;;3.40;38.34;100670.75;10265986;28;20133;-73
2022/03/09 19:48:42;;;;;;;15.63;9.90;;;;;;;3.05;38.53;100684.31;10267533;28;20115;-74
2022/03/09 19:53:44;;;;;;;19.02;9.35;;;;;;;3.04;38.82;100680.03;10266451;28;20165;-74
2022/03/09 19:58:46;;;;;;;15.60;9.68;;;;;;;2.95;39.36;100682.78;10269032;28;20078;-74
2022/03/09 20:03:48;;;;;;;17.63;9.73;;;;;;;2.87;39.63;100684.63;10267464;28;20057;-73
2022/03/09 20:08:50;;;;;;;18.98;10.60;;;;;;;2.75;39.83;100698.59;10266381;28;20058;-74
2022/03/09 20:13:53;;;;;;;14.88;10.18;;;;;;;2.65;40.31;100697.06;10266327;28;20471;-74
2022/03/09 20:18:54;;;;;;;18.25;9.95;;;;;;;2.51;40.24;100696.41;10266840;28;20361;-74
2022/03/09 20:23:56;;;;;;;14.77;9.65;;;;;;;2.33;41.23;100695.81;10266753;28;20658;-74
2022/03/09 20:28:58;;;;;;;19.55;10.93;;;;;;;2.29;41.23;100696.72;10265585;28;21143;-74
2022/03/09 20:34:00;;;;;;;15.52;10.38;;;;;;;2.05;41.53;100695.34;10266535;28;20147;-74
2022/03/09 20:39:01;;;;;;;16.30;10.68;;;;;;;1.95;41.92;100704.09;10265526;28;20102;-74
2022/03/09 20:44:06;;;;;;;18.23;10.13;;;;;;;1.94;42.55;100712.69;10264926;28;20496;-74
2022/03/09 20:49:08;;;;;;;14.68;10.20;;;;;;;1.90;42.40;100718.75;10265507;28;20476;-74
2022/03/09 20:54:10;;;;;;;17.08;11.68;;;;;;;1.82;42.10;100713.69;10265378;28;20420;-74
2022/03/09 20:59:12;;;;;;;20.55;11.55;;;;;;;1.70;42.44;100719.00;10264837;28;20149;-74
2022/03/09 21:04:13;;;;;;;16.80;10.93;;;;;;;1.62;42.69;100728.53;10265440;28;20065;-74
2022/03/09 21:09:15;;;;;;;14.88;10.68;;;;;;;1.61;42.58;100726.81;10265355;28;20564;-74
2022/03/09 21:14:17;;;;;;;16.27;10.80;;;;;;;1.60;43.03;100739.72;10264601;28;20051;-74
2022/03/09 21:19:20;;;;;;;19.23;12.30;;;;;;;1.54;43.08;100744.94;10263557;28;20065;-74
2022/03/09 21:24:22;;;;;;;24.80;15.30;;;;;;;1.38;43.71;100738.25;10264547;28;20262;-74
2022/03/09 21:29:24;;;;;;;19.95;12.15;;;;;;;1.21;44.38;100736.69;10265055;28;20051;-74
2022/03/09 21:34:25;;;;;;;16.13;10.80;;;;;;;1.18;44.28;100733.25;10264976;28;21112;-74
2022/03/09 21:39:27;;;;;;;16.75;10.63;;;;;;;1.16;44.27;100733.28;10265484;28;20137;-74
2022/03/09 21:44:29;;;;;;;15.40;10.93;;;;;;;1.13;44.33;100745.34;10264563;28;20545;-73
2022/03/09 21:49:31;;;;;;;28.02;16.58;;;;;;;1.06;44.54;100741.94;10264239;28;20165;-73
2022/03/09 21:54:34;;;;;;;20.02;12.95;;;;;;;0.99;45.27;100757.47;10263445;28;20493;-74
2022/03/09 21:59:36;;;;;;;16.30;10.77;;;;;;;0.93;45.21;100755.78;10262971;28;20105;-73
2022/03/09 22:04:38;;;;;;;26.17;14.82;;;;;;;0.73;45.64;100757.66;10264903;28;20133;-73
2022/03/09 22:09:40;;;;;;;25.45;16.55;;;;;;;0.52;46.08;100750.91;10264245;28;20057;-73
2022/03/09 22:14:41;;;;;;;24.48;14.63;;;;;;;0.41;46.29;100747.56;10262127;28;20134;-73
2022/03/09 22:19:43;;;;;;;26.13;15.07;;;;;;;0.41;46.49;100750.16;10262962;28;20137;-73
2022/03/09 22:24:45;;;;;;;24.10;14.98;;;;;;;0.42;46.60;100746.69;10263922;28;20094;-73
2022/03/09 22:29:48;;;;;;;23.05;14.02;;;;;;;0.36;46.93;100756.19;10263259;28;20481;-73
2022/03/09 22:34:49;;;;;;;24.83;14.75;;;;;;;0.30;47.16;100769.09;10268421;28;20051;-73
2022/03/09 22:39:51;;;;;;;29.80;16.15;;;;;;;0.28;47.00;100775.94;10270391;28;20863;-73
2022/03/09 22:44:53;;;;;;;24.55;15.75;;;;;;;0.10;47.42;100765.72;10270638;28;20058;-73
2022/03/09 22:49:55;;;;;;;27.27;15.52;;;;;;;0.01;47.77;100778.63;10269603;28;20054;-73
2022/03/09 22:54:57;;;;;;;25.75;15.82;;;;;;;-0.05;47.92;100776.06;10269961;28;20051;-73
2022/03/09 22:59:58;;;;;;;26.35;15.68;;;;;;;-0.11;48.27;100773.53;10271083;28;20165;-74
2022/03/09 23:10:21;;;;;;;24.30;14.60;;;;;;;-0.31;48.83;100782.13;10269017;28;20411;-73